NCAR-RAP Real-Time Weather Data

Output produced by METARs form (02 December 2021  04:44 UTC)
found at http://weather.rap.ucar.edu/surface/
 
Conditions at: KSPI observed 02 December 2021  03:52 UTC
Temperature: 10.0°C (50°F)
Dewpoint: 3.9°C (39°F) [RH = 66%]
Pressure (altimeter): 29.89 inches Hg (1012.3 mb)
[Sea-level pressure: 1012.3 mb]
Winds: from the SW (230 degrees) at 9 MPH (8 knots; 4.2 m/s)
Visibility: 10 or more miles (16+ km)
Ceiling: at least 12,000 feet AGL
Clouds: sky clear below 12,000 feet AGL
Present Weather: no significant weather observed at this time
KSPI 020352Z 23008KT 10SM CLR 10/04 A2989 RMK AO2 SLP123 T01000039